createdAt,value
2019-01-20T00:01:43.914Z,99948.09
2019-01-20T00:04:59.670Z,99946.20
2019-01-20T00:08:15.526Z,99944.73
2019-01-20T00:11:31.520Z,99851.55
2019-01-20T00:14:53.941Z,99939.61
2019-01-20T00:18:09.240Z,99898.78
2019-01-20T00:21:31.631Z,99937.00
2019-01-20T00:24:47.186Z,99944.77
2019-01-20T00:28:09.840Z,99947.06
2019-01-20T00:31:24.780Z,99944.85
2019-01-20T00:34:47.497Z,99952.80
2019-01-20T00:38:03.369Z,99948.78
2019-01-20T00:41:24.021Z,99951.44
2019-01-20T00:44:43.814Z,99944.68
2019-01-20T00:47:59.104Z,99943.62
2019-01-20T00:55:08.334Z,99950.14
2019-01-20T00:58:30.729Z,99953.33
2019-01-20T01:01:46.425Z,99951.08
2019-01-20T01:05:08.909Z,99948.56
2019-01-20T01:08:22.554Z,99947.74
2019-01-20T01:11:38.449Z,99946.66
2019-01-20T01:14:53.855Z,99945.13
2019-01-20T01:18:09.141Z,99945.01
2019-01-20T01:21:31.542Z,99924.64
2019-01-20T01:24:47.124Z,99945.55
2019-01-20T01:28:02.672Z,99945.88
2019-01-20T01:31:25.103Z,99946.24
2019-01-20T01:34:40.785Z,99945.28
2019-01-20T01:37:55.869Z,99943.72
2019-01-20T01:41:18.247Z,99941.82
2019-01-20T01:44:33.604Z,99941.50
2019-01-20T01:47:56.353Z,99938.78
2019-01-20T01:51:12.167Z,99935.79
2019-01-20T01:54:34.941Z,99940.21
2019-01-20T01:57:51.387Z,99940.21
2019-01-20T02:01:13.889Z,99941.13
2019-01-20T02:04:29.449Z,99949.00
2019-01-20T02:07:51.836Z,99957.71
2019-01-20T02:11:07.202Z,99948.47
2019-01-20T02:14:29.624Z,99952.21
2019-01-20T02:17:43.220Z,99940.72
2019-01-20T02:20:59.945Z,99861.16
2019-01-20T02:24:22.640Z,99954.70
2019-01-20T02:27:38.618Z,99959.48
2019-01-20T02:30:54.486Z,99958.00
2019-01-20T02:34:17.196Z,99966.02
2019-01-20T02:37:33.420Z,99968.01
2019-01-20T02:40:56.135Z,99966.91
2019-01-20T02:44:12.054Z,99968.28
2019-01-20T02:47:34.743Z,99939.37
2019-01-20T02:50:50.927Z,99965.53
2019-01-20T02:53:55.245Z,99966.36
2019-01-20T02:57:10.302Z,99963.78
2019-01-20T03:00:32.667Z,99957.47
2019-01-20T03:03:47.711Z,99962.18
2019-01-20T03:07:04.008Z,99958.77
2019-01-20T03:10:19.443Z,99962.72
2019-01-20T03:13:34.785Z,99962.02
2019-01-20T03:16:57.166Z,99966.80
2019-01-20T03:20:14.209Z,99958.83
2019-01-20T03:23:29.947Z,99944.16
2019-01-20T03:26:52.440Z,99953.05
2019-01-20T03:30:10.235Z,99964.82
2019-01-20T03:33:25.965Z,99960.00
2019-01-20T03:36:48.377Z,99958.71
2019-01-20T03:40:04.918Z,99883.72
2019-01-20T03:43:27.397Z,99960.96
2019-01-20T03:46:43.039Z,99964.77
2019-01-20T03:50:06.903Z,99935.77
2019-01-20T03:53:22.090Z,99851.81
2019-01-20T03:56:44.831Z,99967.00
2019-01-20T04:00:00.265Z,99957.75
2019-01-20T04:03:23.087Z,99957.89
2019-01-20T04:06:39.024Z,99956.26
2019-01-20T04:13:42.935Z,99952.44
2019-01-20T04:17:05.744Z,99955.16
2019-01-20T04:20:21.666Z,99951.77
2019-01-20T04:23:44.363Z,99942.31
2019-01-20T04:27:00.400Z,99954.53
2019-01-20T04:30:23.131Z,99951.64
2019-01-20T04:33:39.008Z,99947.91
2019-01-20T04:36:54.359Z,99944.70
2019-01-20T04:40:19.586Z,99949.17
2019-01-20T04:43:35.457Z,99944.08
2019-01-20T04:46:50.595Z,99940.59
2019-01-20T04:50:14.959Z,99941.69
2019-01-20T04:53:30.978Z,99943.96
2019-01-20T04:56:53.387Z,99942.73
2019-01-20T05:00:11.069Z,99923.33
2019-01-20T05:03:34.446Z,99946.13
2019-01-20T05:06:50.063Z,99920.84
2019-01-20T05:10:13.313Z,99951.49
2019-01-20T05:13:28.320Z,99952.16
2019-01-20T05:16:51.068Z,99961.73
2019-01-20T05:20:07.004Z,99959.39
2019-01-20T05:23:22.290Z,99844.45
2019-01-20T05:26:44.675Z,99961.17
2019-01-20T05:30:02.205Z,99960.30
2019-01-20T05:33:24.769Z,99959.38
2019-01-20T05:36:40.407Z,99955.30
2019-01-20T05:40:22.948Z,99954.64
2019-01-20T05:43:38.295Z,99953.79
2019-01-20T05:47:01.302Z,99960.48
2019-01-20T05:50:17.049Z,99957.89
2019-01-20T05:53:39.437Z,99956.20
2019-01-20T05:56:54.799Z,99955.73
2019-01-20T06:00:36.875Z,99950.15
2019-01-20T06:03:52.442Z,99963.39
2019-01-20T06:07:14.837Z,99960.64
2019-01-20T06:10:30.173Z,99967.30
2019-01-20T06:13:52.854Z,99972.81
2019-01-20T06:17:07.850Z,99981.73
2019-01-20T06:20:30.936Z,99977.11
2019-01-20T06:23:46.558Z,99981.27
2019-01-20T06:27:02.327Z,99993.73
2019-01-20T06:34:41.018Z,99993.95
2019-01-20T06:37:56.902Z,100005.44
2019-01-20T06:41:19.286Z,99995.57
2019-01-20T06:44:34.577Z,100003.64
2019-01-20T06:47:50.136Z,99995.42
2019-01-20T06:51:12.812Z,99998.39
2019-01-20T06:54:28.616Z,100001.62
2019-01-20T06:57:51.338Z,99999.78
2019-01-20T07:01:07.103Z,100006.64
2019-01-20T07:04:22.848Z,100009.38
2019-01-20T07:07:45.250Z,100013.48
2019-01-20T07:11:01.040Z,100020.13
2019-01-20T07:14:17.875Z,99999.77
2019-01-20T07:17:40.343Z,99967.81
2019-01-20T07:20:56.116Z,100024.72
2019-01-20T07:24:18.522Z,100031.50
2019-01-20T07:27:33.636Z,100029.63
2019-01-20T07:30:56.625Z,99923.94
2019-01-20T07:34:11.659Z,100031.70
2019-01-20T07:37:34.031Z,100034.11
2019-01-20T07:40:49.371Z,100041.92
2019-01-20T07:44:12.734Z,100039.02
2019-01-20T07:47:28.702Z,99912.34
2019-01-20T07:50:51.093Z,100046.16
2019-01-20T07:54:06.100Z,99996.61
2019-01-20T07:57:21.608Z,100050.97
2019-01-20T08:00:44.372Z,100051.53
2019-01-20T08:04:00.112Z,100061.20
2019-01-20T08:07:15.377Z,100059.42
2019-01-20T08:10:37.738Z,100064.78
2019-01-20T08:13:52.773Z,100071.19
2019-01-20T08:17:15.506Z,100068.39
2019-01-20T08:20:30.657Z,100080.86
2019-01-20T08:23:53.365Z,100085.44
2019-01-20T08:27:08.608Z,100087.99
2019-01-20T08:30:30.978Z,100092.43
2019-01-20T08:33:46.213Z,100097.45
2019-01-20T08:37:08.922Z,100098.16
2019-01-20T08:40:25.266Z,100112.39
2019-01-20T08:43:47.656Z,100111.56
2019-01-20T08:47:22.704Z,100083.83
2019-01-20T08:50:45.231Z,100117.97
2019-01-20T08:54:03.385Z,100118.59
2019-01-20T08:57:06.293Z,100125.59
2019-01-20T09:00:14.070Z,100125.44
2019-01-20T09:03:17.106Z,100131.03
2019-01-20T09:06:20.787Z,100135.03
2019-01-20T09:09:24.122Z,100137.23
2019-01-20T09:12:27.440Z,100140.17
2019-01-20T09:15:30.355Z,100138.16
2019-01-20T09:18:33.284Z,100144.37
2019-01-20T09:21:36.630Z,100151.52
2019-01-20T09:24:39.918Z,100131.14
2019-01-20T09:27:43.203Z,100142.14
2019-01-20T09:30:46.792Z,100151.50
2019-01-20T09:33:49.765Z,100161.80
2019-01-20T09:36:54.195Z,100168.98
2019-01-20T09:39:57.114Z,100170.91
2019-01-20T09:43:00.438Z,100168.20
2019-01-20T09:46:03.580Z,100169.83
2019-01-20T09:49:06.484Z,100175.44
2019-01-20T09:52:09.421Z,100173.53
2019-01-20T09:55:13.714Z,100181.44
2019-01-20T09:58:16.915Z,100178.34
2019-01-20T10:01:20.203Z,100173.56
2019-01-20T10:04:23.567Z,100179.29
2019-01-20T10:07:26.866Z,100178.02
2019-01-20T10:10:30.209Z,100190.15
2019-01-20T10:13:33.544Z,100189.84
2019-01-20T10:16:36.461Z,100188.25
2019-01-20T10:19:39.727Z,100191.00
2019-01-20T10:22:42.694Z,100194.81
2019-01-20T10:25:45.990Z,100195.77
2019-01-20T10:28:49.654Z,100196.23
2019-01-20T10:31:52.584Z,100202.02
2019-01-20T10:34:56.108Z,100198.69
2019-01-20T10:38:01.719Z,100197.88
2019-01-20T10:41:05.359Z,100204.02
2019-01-20T10:44:08.630Z,100205.38
2019-01-20T10:47:11.558Z,100212.15
2019-01-20T10:50:15.940Z,100212.38
2019-01-20T10:53:19.224Z,100213.20
2019-01-20T10:56:22.573Z,100217.05
2019-01-20T10:59:25.481Z,100210.73
2019-01-20T11:02:28.547Z,100216.39
2019-01-20T11:05:32.766Z,100214.45
2019-01-20T11:08:35.906Z,100213.50
2019-01-20T11:11:40.636Z,100222.48
2019-01-20T11:14:44.487Z,100216.14
2019-01-20T11:17:47.746Z,100211.08
2019-01-20T11:20:50.655Z,100211.95
2019-01-20T11:23:53.905Z,100205.66
2019-01-20T11:26:57.478Z,100207.35
2019-01-20T11:30:00.766Z,100205.77
2019-01-20T11:33:04.279Z,100215.89
2019-01-20T11:36:07.548Z,100215.00
2019-01-20T11:39:10.548Z,100212.56
2019-01-20T11:42:14.162Z,100206.89
2019-01-20T11:45:23.544Z,100206.02
2019-01-20T11:48:26.475Z,100205.76
2019-01-20T11:51:29.382Z,100205.66
2019-01-20T11:54:32.332Z,100207.42
2019-01-20T11:57:35.553Z,100199.78
2019-01-20T12:00:38.859Z,100198.86
2019-01-20T12:03:42.142Z,100202.03
2019-01-20T12:06:45.073Z,100202.13
2019-01-20T12:09:48.323Z,100205.77
2019-01-20T12:13:10.821Z,100200.46
2019-01-20T12:16:13.742Z,100205.24
2019-01-20T12:19:16.663Z,100204.36
2019-01-20T12:22:19.842Z,100208.78
2019-01-20T12:25:23.423Z,100204.24
2019-01-20T12:28:26.384Z,100203.19
2019-01-20T12:31:29.603Z,100204.95
2019-01-20T12:35:16.534Z,100199.39
2019-01-20T12:38:19.788Z,100191.49
2019-01-20T12:41:23.318Z,100195.30
2019-01-20T12:44:31.397Z,100202.16
2019-01-20T12:47:31.455Z,100205.77
2019-01-20T12:50:34.759Z,100204.84
2019-01-20T12:53:37.652Z,100203.08
2019-01-20T12:56:40.974Z,100210.30
2019-01-20T12:59:44.238Z,100204.39
2019-01-20T13:02:47.373Z,100205.22
2019-01-20T13:05:50.353Z,100203.59
2019-01-20T13:08:53.252Z,100201.11
2019-01-20T13:11:56.538Z,100196.70
2019-01-20T13:14:59.798Z,100197.58
2019-01-20T13:18:03.160Z,100202.55
2019-01-20T13:21:06.210Z,100205.20
2019-01-20T13:24:09.132Z,100203.48
2019-01-20T13:27:12.393Z,100196.98
2019-01-20T13:30:18.550Z,100203.34
2019-01-20T13:33:21.484Z,100202.97
2019-01-20T13:36:24.402Z,100196.94
2019-01-20T13:39:27.306Z,100206.36
2019-01-20T13:42:30.913Z,100205.58
2019-01-20T13:45:33.806Z,100202.92
2019-01-20T13:48:37.074Z,100206.27
2019-01-20T13:51:39.999Z,100208.22
2019-01-20T13:54:42.935Z,100214.17
2019-01-20T13:57:46.250Z,100216.91
2019-01-20T14:00:49.736Z,100219.92
2019-01-20T14:03:52.950Z,100223.92
2019-01-20T14:06:55.856Z,100222.30
2019-01-20T14:09:58.784Z,100224.30
2019-01-20T14:13:02.162Z,100228.28
2019-01-20T14:16:05.119Z,100234.69
2019-01-20T14:19:08.049Z,100235.11
2019-01-20T14:22:10.962Z,100232.34
2019-01-20T14:25:17.011Z,100230.11
2019-01-20T14:28:20.330Z,100229.73
2019-01-20T14:31:23.256Z,100223.35
2019-01-20T14:34:26.904Z,100226.98
2019-01-20T14:37:29.832Z,100229.17
2019-01-20T14:40:33.145Z,100224.67
2019-01-20T14:43:36.068Z,100223.97
2019-01-20T14:46:39.046Z,100220.21
2019-01-20T14:49:41.975Z,100224.70
2019-01-20T14:52:44.982Z,100231.05
2019-01-20T14:56:00.587Z,100232.45
2019-01-20T14:59:23.368Z,100228.61
2019-01-20T15:02:38.454Z,100242.79
2019-01-20T15:05:53.877Z,100245.66
2019-01-20T15:09:16.280Z,100246.45
2019-01-20T15:12:31.686Z,100256.78
2019-01-20T15:15:46.679Z,100249.94
2019-01-20T15:19:09.067Z,100258.56
2019-01-20T15:22:12.417Z,100265.22
2019-01-20T15:25:34.830Z,100268.59
2019-01-20T15:28:50.221Z,100272.27
2019-01-20T15:32:13.028Z,100271.80
2019-01-20T15:35:28.632Z,100274.28
2019-01-20T15:38:51.392Z,100279.32
2019-01-20T15:42:07.391Z,100267.96
2019-01-20T15:45:30.056Z,100215.80
2019-01-20T15:48:45.865Z,100286.45
2019-01-20T15:52:09.256Z,100291.58
2019-01-20T15:55:25.012Z,100298.95
2019-01-20T15:58:40.861Z,100264.56
2019-01-20T16:01:56.298Z,100305.61
2019-01-20T16:05:11.429Z,100304.75
2019-01-20T16:08:26.671Z,100311.30
2019-01-20T16:11:49.347Z,100314.78
2019-01-20T16:15:07.236Z,100311.11
2019-01-20T16:18:22.664Z,100310.69
2019-01-20T16:21:45.716Z,100327.02
2019-01-20T16:25:01.535Z,100311.97
2019-01-20T16:28:24.991Z,100315.88
2019-01-20T16:31:40.511Z,100339.49
2019-01-20T16:35:03.710Z,100338.41
2019-01-20T16:38:19.341Z,100348.63
2019-01-20T16:45:42.769Z,100349.25
2019-01-20T16:49:05.159Z,100360.95
2019-01-20T16:52:21.136Z,100356.30
2019-01-20T16:55:44.174Z,100368.12
2019-01-20T16:58:59.964Z,100365.83
2019-01-20T17:02:15.209Z,100369.25
2019-01-20T17:05:37.609Z,100374.57
2019-01-20T17:08:52.962Z,100378.41
2019-01-20T17:12:15.341Z,100374.48
2019-01-20T17:15:39.116Z,100379.10
2019-01-20T17:18:56.731Z,100392.70
2019-01-20T17:22:12.224Z,100383.78
2019-01-20T17:25:27.547Z,100382.81
2019-01-20T17:28:51.011Z,100380.91
2019-01-20T17:32:06.086Z,100391.44
2019-01-20T17:35:28.547Z,100392.44
2019-01-20T17:38:44.649Z,100391.83
2019-01-20T17:42:07.052Z,100389.78
2019-01-20T17:45:26.256Z,100396.05
2019-01-20T17:48:48.649Z,100400.38
2019-01-20T17:52:03.791Z,100399.67
2019-01-20T17:55:26.224Z,100401.75
2019-01-20T17:58:41.809Z,100383.02
2019-01-20T18:01:57.212Z,100318.00
2019-01-20T18:05:13.199Z,100409.54
2019-01-20T18:08:35.863Z,100412.44
2019-01-20T18:11:51.334Z,100422.76
2019-01-20T18:15:14.630Z,100424.52
2019-01-20T18:18:30.047Z,100381.52
2019-01-20T18:21:46.012Z,100434.81
2019-01-20T18:25:10.457Z,100436.58
2019-01-20T18:28:26.266Z,100441.08
2019-01-20T18:31:41.441Z,100404.47
2019-01-20T18:35:04.442Z,100446.16
2019-01-20T18:38:19.781Z,100341.78
2019-01-20T18:41:42.183Z,100451.12
2019-01-20T18:44:57.415Z,100446.57
2019-01-20T18:48:13.585Z,100436.09
2019-01-20T18:51:35.988Z,100345.05
2019-01-20T18:54:51.460Z,100455.67
2019-01-20T18:58:14.302Z,100454.88
2019-01-20T19:01:29.531Z,100454.78
2019-01-20T19:04:45.064Z,100462.30
2019-01-20T19:08:01.042Z,100403.83
2019-01-20T19:11:23.543Z,100459.94
2019-01-20T19:14:39.564Z,100459.58
2019-01-20T19:17:54.857Z,100370.20
2019-01-20T19:21:17.946Z,100472.44
2019-01-20T19:24:34.134Z,100468.20
2019-01-20T19:27:57.145Z,100473.80
2019-01-20T19:31:13.998Z,100467.75
2019-01-20T19:34:37.808Z,100422.38
2019-01-20T19:37:55.213Z,100482.93
2019-01-20T19:41:19.361Z,100486.78
2019-01-20T19:44:35.479Z,100484.19
2019-01-20T19:47:59.601Z,100485.42
2019-01-20T19:51:16.920Z,100494.14
2019-01-20T19:54:41.775Z,100493.50
2019-01-20T19:57:58.640Z,100497.72
2019-01-20T20:01:05.110Z,100509.78
2019-01-20T20:04:32.856Z,100505.83
2019-01-20T20:07:57.596Z,100517.31
2019-01-20T20:11:14.253Z,100512.92
2019-01-20T20:14:39.801Z,100507.77
2019-01-20T20:17:57.552Z,100517.55
2019-01-20T20:21:22.879Z,100520.78
2019-01-20T20:24:40.292Z,100523.61
2019-01-20T20:28:05.428Z,100480.30
2019-01-20T20:31:23.335Z,100434.90
2019-01-20T20:34:48.493Z,100543.36
2019-01-20T20:38:06.143Z,100446.02
2019-01-20T20:41:23.862Z,100543.90
2019-01-20T20:44:48.924Z,100545.19
2019-01-20T20:48:06.299Z,100545.53
2019-01-20T20:51:23.208Z,100505.37
2019-01-20T20:54:47.322Z,100547.64
2019-01-20T20:58:03.910Z,100466.81
2019-01-20T21:01:28.899Z,100549.97
2019-01-20T21:04:46.307Z,100552.53
2019-01-20T21:08:09.014Z,100559.61
2019-01-20T21:11:25.030Z,100564.27
2019-01-20T21:14:47.947Z,100567.28
2019-01-20T21:18:03.974Z,100570.64
2019-01-20T21:21:26.764Z,100471.93
2019-01-20T21:25:04.250Z,100575.09
2019-01-20T21:28:26.647Z,100576.28
2019-01-20T21:31:42.710Z,100510.10
2019-01-20T21:35:06.775Z,100592.09
2019-01-20T21:38:22.081Z,100597.64
2019-01-20T21:41:44.766Z,100597.27
2019-01-20T21:45:01.279Z,100597.75
2019-01-20T21:48:17.086Z,100602.92
2019-01-20T21:51:39.496Z,100606.47
2019-01-20T21:54:42.506Z,100604.39
2019-01-20T21:57:57.929Z,100598.45
2019-01-20T22:01:20.652Z,100603.00
2019-01-20T22:04:36.546Z,100512.31
2019-01-20T22:07:59.310Z,100615.27
2019-01-20T22:11:15.210Z,100622.66
2019-01-20T22:14:37.609Z,100627.56
2019-01-20T22:17:51.764Z,100571.66
2019-01-20T22:21:14.779Z,100619.91
2019-01-20T22:24:30.243Z,100628.05
2019-01-20T22:27:52.638Z,100630.03
2019-01-20T22:31:07.779Z,100513.09
2019-01-20T22:34:23.563Z,100626.75
2019-01-20T22:37:45.965Z,100619.05
2019-01-20T22:41:01.322Z,100573.78
2019-01-20T22:44:16.805Z,100625.94
2019-01-20T22:47:39.176Z,100529.60
2019-01-20T22:50:54.260Z,100517.27
2019-01-20T22:54:16.654Z,100636.03
2019-01-20T22:57:32.131Z,100634.70
2019-01-20T23:04:46.255Z,100647.67
2019-01-20T23:08:02.424Z,100655.41
2019-01-20T23:11:18.597Z,100651.83
2019-01-20T23:14:41.007Z,100657.41
2019-01-20T23:17:56.344Z,100667.68
2019-01-20T23:21:11.728Z,100580.05
2019-01-20T23:24:34.209Z,100663.81
2019-01-20T23:27:50.526Z,100659.45
2019-01-20T23:31:13.092Z,100652.80
2019-01-20T23:34:28.745Z,100647.02
2019-01-20T23:37:51.504Z,100654.64
2019-01-20T23:41:07.503Z,100656.53
2019-01-20T23:44:30.228Z,100607.17
2019-01-20T23:47:45.753Z,100640.89
2019-01-20T23:51:08.461Z,100645.79
2019-01-20T23:54:24.492Z,100644.59
